createdAt,value
2018-05-31T00:01:06.194Z,97037.97
2018-05-31T00:03:33.625Z,97031.33
2018-05-31T00:06:01.070Z,97033.13
2018-05-31T00:08:28.591Z,97035.72
2018-05-31T00:10:56.069Z,97031.31
2018-05-31T00:13:23.524Z,97026.87
2018-05-31T00:15:50.973Z,97021.37
2018-05-31T00:18:19.004Z,97019.62
2018-05-31T00:20:46.440Z,97015.53
2018-05-31T00:23:13.926Z,97017.37
2018-05-31T00:25:41.495Z,97022.33
2018-05-31T00:28:08.981Z,97024.65
2018-05-31T00:30:36.436Z,97014.06
2018-05-31T00:33:03.930Z,97008.70
2018-05-31T00:35:31.504Z,97014.94
2018-05-31T00:37:59.057Z,97013.37
2018-05-31T00:40:26.528Z,97012.14
2018-05-31T00:42:53.966Z,97012.00
2018-05-31T00:45:21.376Z,97009.84
2018-05-31T00:47:48.818Z,97005.44
2018-05-31T00:50:16.305Z,97002.61
2018-05-31T00:52:43.714Z,97000.20
2018-05-31T00:55:12.331Z,97004.67
2018-05-31T00:57:39.738Z,96997.63
2018-05-31T01:00:10.733Z,96997.13
2018-05-31T01:02:38.232Z,96995.61
2018-05-31T01:05:05.662Z,96998.52
2018-05-31T01:07:33.129Z,96991.91
2018-05-31T01:10:00.547Z,96988.97
2018-05-31T01:12:27.993Z,96976.22
2018-05-31T01:14:55.477Z,96974.98
2018-05-31T01:17:22.933Z,96972.05
2018-05-31T01:19:50.401Z,96979.89
2018-05-31T01:22:17.881Z,96978.36
2018-05-31T01:24:45.312Z,96973.28
2018-05-31T01:27:12.951Z,96978.30
2018-05-31T01:29:40.400Z,96978.46
2018-05-31T01:32:07.939Z,96977.19
2018-05-31T01:34:35.310Z,96969.04
2018-05-31T01:37:02.794Z,96966.13
2018-05-31T01:39:30.236Z,96969.65
2018-05-31T01:41:57.740Z,96970.89
2018-05-31T01:44:25.236Z,96972.16
2018-05-31T01:46:52.739Z,96972.34
2018-05-31T01:49:20.228Z,96978.25
2018-05-31T01:51:47.805Z,96971.88
2018-05-31T01:54:15.259Z,96970.59
2018-05-31T01:56:42.692Z,96969.95
2018-05-31T01:59:10.124Z,96970.88
2018-05-31T02:01:37.592Z,96978.96
2018-05-31T02:04:05.032Z,96984.08
2018-05-31T02:06:32.448Z,96985.41
2018-05-31T02:09:01.095Z,96978.56
2018-05-31T02:11:28.528Z,96983.00
2018-05-31T02:13:56.019Z,96982.14
2018-05-31T02:16:23.511Z,96988.26
2018-05-31T02:18:50.956Z,96986.60
2018-05-31T02:21:18.399Z,96992.11
2018-05-31T02:23:46.661Z,96992.65
2018-05-31T02:26:14.158Z,96996.20
2018-05-31T02:28:43.275Z,96999.22
2018-05-31T02:31:10.728Z,97004.56
2018-05-31T02:33:39.377Z,97011.55
2018-05-31T02:36:06.803Z,97005.22
2018-05-31T02:38:34.245Z,97001.92
2018-05-31T02:41:01.730Z,97003.12
2018-05-31T02:43:29.217Z,97004.44
2018-05-31T02:45:56.735Z,97000.75
2018-05-31T02:48:24.183Z,97011.25
2018-05-31T02:50:51.638Z,97013.00
2018-05-31T02:53:19.136Z,97014.20
2018-05-31T02:55:46.572Z,97016.27
2018-05-31T02:58:14.024Z,97014.73
2018-05-31T03:00:41.490Z,97017.38
2018-05-31T03:03:09.712Z,97018.29
2018-05-31T03:05:37.195Z,97011.88
2018-05-31T03:08:04.650Z,97000.13
2018-05-31T03:10:32.184Z,97008.00
2018-05-31T03:12:59.669Z,97008.75
2018-05-31T03:15:27.100Z,97016.84
2018-05-31T03:17:55.193Z,97017.70
2018-05-31T03:20:22.665Z,97012.55
2018-05-31T03:22:50.160Z,97015.00
2018-05-31T03:25:17.635Z,97014.52
2018-05-31T03:27:45.206Z,97021.09
2018-05-31T03:30:12.957Z,97026.28
2018-05-31T03:32:40.463Z,97028.01
2018-05-31T03:35:07.912Z,97037.17
2018-05-31T03:37:36.333Z,97035.00
2018-05-31T03:40:03.814Z,97036.13
2018-05-31T03:42:31.327Z,97043.29
2018-05-31T03:44:58.796Z,97044.55
2018-05-31T03:47:26.271Z,97034.58
2018-05-31T03:49:53.703Z,97040.59
2018-05-31T03:52:22.916Z,97040.05
2018-05-31T03:54:50.429Z,97047.17
2018-05-31T03:57:17.930Z,97053.16
2018-05-31T03:59:46.469Z,97054.91
2018-05-31T04:02:13.993Z,97049.12
2018-05-31T04:04:41.438Z,97044.25
2018-05-31T04:07:09.711Z,97048.83
2018-05-31T04:09:37.163Z,97051.67
2018-05-31T04:12:04.758Z,97051.03
2018-05-31T04:14:32.202Z,97055.21
2018-05-31T04:16:59.652Z,97056.08
2018-05-31T04:19:27.082Z,97054.23
2018-05-31T04:21:54.538Z,97058.16
2018-05-31T04:24:22.077Z,97052.32
2018-05-31T04:26:49.547Z,97047.34
2018-05-31T04:29:17.169Z,97038.22
2018-05-31T04:31:44.816Z,97048.49
2018-05-31T04:34:12.441Z,97065.33
2018-05-31T04:36:46.562Z,97061.55
2018-05-31T04:39:13.980Z,97067.41
2018-05-31T04:41:41.394Z,97067.52
2018-05-31T04:44:08.838Z,97080.89
2018-05-31T04:46:36.343Z,97080.19
2018-05-31T04:49:03.886Z,97079.66
2018-05-31T04:51:31.299Z,97078.64
2018-05-31T04:54:01.817Z,97079.41
2018-05-31T04:56:29.303Z,97082.64
2018-05-31T04:58:56.720Z,97081.19
2018-05-31T05:01:24.268Z,97082.84
2018-05-31T05:03:51.748Z,97089.66
2018-05-31T05:06:19.234Z,97091.11
2018-05-31T05:08:46.777Z,97094.04
2018-05-31T05:11:14.254Z,97095.98
2018-05-31T05:13:43.059Z,97099.89
2018-05-31T05:16:10.621Z,97086.83
2018-05-31T05:18:38.201Z,97083.88
2018-05-31T05:21:05.766Z,97085.34
2018-05-31T05:23:33.257Z,97080.95
2018-05-31T05:26:00.746Z,97080.13
2018-05-31T05:28:28.211Z,97076.17
2018-05-31T05:30:55.695Z,97075.08
2018-05-31T05:33:23.180Z,97079.44
2018-05-31T05:35:50.631Z,97084.25
2018-05-31T05:38:18.093Z,97082.50
2018-05-31T05:40:45.645Z,97087.32
2018-05-31T05:43:17.764Z,97089.89
2018-05-31T05:45:45.202Z,97099.89
2018-05-31T05:48:12.781Z,97097.83
2018-05-31T05:50:40.613Z,97106.78
2018-05-31T05:53:08.130Z,97112.45
2018-05-31T05:55:35.634Z,97111.78
2018-05-31T05:58:03.213Z,97115.86
2018-05-31T06:00:30.631Z,97121.55
2018-05-31T06:02:58.119Z,97125.72
2018-05-31T06:05:25.642Z,97127.37
2018-05-31T06:07:53.107Z,97131.19
2018-05-31T06:10:20.656Z,97131.83
2018-05-31T06:12:48.187Z,97130.16
2018-05-31T06:15:15.660Z,97127.37
2018-05-31T06:17:43.180Z,97138.16
2018-05-31T06:20:10.630Z,97130.29
2018-05-31T06:22:39.003Z,97134.90
2018-05-31T06:25:06.464Z,97133.00
2018-05-31T06:27:33.908Z,97136.97
2018-05-31T06:30:01.431Z,97132.52
2018-05-31T06:32:32.617Z,97136.88
2018-05-31T06:35:00.088Z,97136.73
2018-05-31T06:37:28.017Z,97140.75
2018-05-31T06:39:55.512Z,97147.41
2018-05-31T06:42:23.976Z,97145.02
2018-05-31T06:44:51.630Z,97150.82
2018-05-31T06:47:19.057Z,97155.85
2018-05-31T06:49:46.520Z,97154.98
2018-05-31T06:52:14.029Z,97158.25
2018-05-31T06:54:41.486Z,97163.99
2018-05-31T06:57:08.949Z,97164.18
2018-05-31T06:59:36.479Z,97164.79
2018-05-31T07:02:03.901Z,97167.84
2018-05-31T07:04:31.362Z,97168.22
2018-05-31T07:06:58.844Z,97171.91
2018-05-31T07:09:26.326Z,97168.42
2018-05-31T07:11:53.846Z,97173.41
2018-05-31T07:14:21.261Z,97171.48
2018-05-31T07:16:48.862Z,97170.63
2018-05-31T07:19:22.103Z,97177.97
2018-05-31T07:21:49.653Z,97166.97
2018-05-31T07:24:17.098Z,97165.34
2018-05-31T07:26:44.701Z,97165.48
2018-05-31T07:29:12.191Z,97166.30
2018-05-31T07:31:39.770Z,97156.23
2018-05-31T07:34:07.200Z,97160.95
2018-05-31T07:36:34.689Z,97157.52
2018-05-31T07:39:02.138Z,97158.80
2018-05-31T07:41:29.737Z,97160.23
2018-05-31T07:43:57.207Z,97159.22
2018-05-31T07:46:24.982Z,97154.86
2018-05-31T07:48:52.521Z,97161.54
2018-05-31T07:51:20.180Z,97153.74
2018-05-31T07:53:48.747Z,97156.84
2018-05-31T07:56:16.333Z,97155.39
2018-05-31T07:58:43.807Z,97156.88
2018-05-31T08:01:11.432Z,97156.09
2018-05-31T08:03:38.959Z,97154.22
2018-05-31T08:06:07.643Z,97154.70
2018-05-31T08:08:35.886Z,97157.91
2018-05-31T08:11:03.457Z,97157.82
2018-05-31T08:13:30.971Z,97156.17
2018-05-31T08:15:58.431Z,97159.78
2018-05-31T08:18:25.870Z,97160.86
2018-05-31T08:20:55.073Z,97155.26
2018-05-31T08:23:22.548Z,97157.45
2018-05-31T08:25:50.894Z,97157.33
2018-05-31T08:28:18.482Z,97157.86
2018-05-31T08:30:45.895Z,97156.82
2018-05-31T08:33:13.377Z,97151.77
2018-05-31T08:35:41.751Z,97157.00
2018-05-31T08:38:09.218Z,97151.87
2018-05-31T08:40:36.866Z,97150.02
2018-05-31T08:43:04.338Z,97153.22
2018-05-31T08:45:31.756Z,97154.89
2018-05-31T08:47:59.188Z,97148.61
2018-05-31T08:50:26.777Z,97149.45
2018-05-31T08:52:54.199Z,97147.09
2018-05-31T08:55:21.671Z,97147.63
2018-05-31T08:57:49.125Z,97134.49
2018-05-31T09:00:16.651Z,97138.70
2018-05-31T09:02:44.156Z,97141.30
2018-05-31T09:05:11.607Z,97145.69
2018-05-31T09:07:39.441Z,97142.52
2018-05-31T09:10:06.869Z,97144.34
2018-05-31T09:12:34.407Z,97149.33
2018-05-31T09:15:01.950Z,97155.59
2018-05-31T09:17:30.411Z,97153.45
2018-05-31T09:19:57.823Z,97151.45
2018-05-31T09:22:25.289Z,97149.14
2018-05-31T09:24:52.917Z,97145.17
2018-05-31T09:27:20.396Z,97147.94
2018-05-31T09:29:47.901Z,97148.30
2018-05-31T09:32:15.376Z,97146.84
2018-05-31T09:34:42.802Z,97139.81
2018-05-31T09:37:11.226Z,97137.50
2018-05-31T09:39:38.765Z,97136.73
2018-05-31T09:42:07.259Z,97135.78
2018-05-31T09:44:34.802Z,97130.30
2018-05-31T09:47:02.205Z,97142.06
2018-05-31T09:49:29.642Z,97141.80
2018-05-31T09:51:57.157Z,97146.69
2018-05-31T09:54:24.599Z,97132.16
2018-05-31T09:56:52.127Z,97141.83
2018-05-31T09:59:19.668Z,97144.69
2018-05-31T10:01:47.288Z,97139.98
2018-05-31T10:04:14.822Z,97148.80
2018-05-31T10:06:42.409Z,97141.31
2018-05-31T10:09:09.875Z,97138.18
2018-05-31T10:11:37.361Z,97138.05
2018-05-31T10:14:04.905Z,97150.57
2018-05-31T10:16:32.451Z,97148.10
2018-05-31T10:18:59.943Z,97143.16
2018-05-31T10:21:27.551Z,97144.80
2018-05-31T10:23:55.075Z,97142.89
2018-05-31T10:26:23.280Z,97146.43
2018-05-31T10:28:51.083Z,97147.14
2018-05-31T10:31:18.481Z,97146.73
2018-05-31T10:33:45.976Z,97151.92
2018-05-31T10:36:13.556Z,97155.43
2018-05-31T10:38:41.034Z,97149.28
2018-05-31T10:41:08.512Z,97143.47
2018-05-31T10:43:36.095Z,97151.41
2018-05-31T10:46:03.512Z,97148.68
2018-05-31T10:48:31.026Z,97140.40
2018-05-31T10:51:00.279Z,97138.91
2018-05-31T10:53:28.436Z,97138.11
2018-05-31T10:55:55.945Z,97136.52
2018-05-31T10:58:23.424Z,97139.50
2018-05-31T11:00:51.064Z,97135.36
2018-05-31T11:03:22.194Z,97133.34
2018-05-31T11:05:49.582Z,97131.12
2018-05-31T11:08:17.019Z,97129.53
2018-05-31T11:10:46.062Z,97121.17
2018-05-31T11:13:13.510Z,97117.12
2018-05-31T11:15:42.791Z,97105.23
2018-05-31T11:18:10.260Z,97101.41
2018-05-31T11:20:38.483Z,97095.41
2018-05-31T11:23:06.190Z,97088.95
2018-05-31T11:25:33.768Z,97089.34
2018-05-31T11:28:01.261Z,97089.02
2018-05-31T11:30:28.778Z,97090.00
2018-05-31T11:32:56.233Z,97082.35
2018-05-31T11:35:23.222Z,97080.17
2018-05-31T11:37:50.211Z,97083.25
2018-05-31T11:40:17.272Z,97083.82
2018-05-31T11:42:44.302Z,97081.51
2018-05-31T11:45:11.784Z,97079.86
2018-05-31T11:47:39.203Z,97089.42
2018-05-31T11:50:06.361Z,97080.66
2018-05-31T11:52:33.962Z,97082.28
2018-05-31T11:55:01.487Z,97082.55
2018-05-31T11:57:28.441Z,97079.52
2018-05-31T11:59:57.262Z,97081.79
2018-05-31T12:02:24.290Z,97073.41
2018-05-31T12:04:51.226Z,97075.17
2018-05-31T12:07:18.338Z,97071.59
2018-05-31T12:09:45.560Z,97065.41
2018-05-31T12:12:12.681Z,97067.75
2018-05-31T12:14:40.344Z,97058.11
2018-05-31T12:17:08.004Z,97050.46
2018-05-31T12:19:35.522Z,97051.18
2018-05-31T12:22:02.466Z,97051.22
2018-05-31T12:24:29.517Z,97048.08
2018-05-31T12:26:56.529Z,97039.86
2018-05-31T12:29:23.622Z,97044.84
2018-05-31T12:31:50.608Z,97041.61
2018-05-31T12:34:17.637Z,97046.23
2018-05-31T12:36:45.865Z,97038.15
2018-05-31T12:39:12.987Z,97047.85
2018-05-31T12:41:40.380Z,97045.58
2018-05-31T12:44:07.900Z,97051.07
2018-05-31T12:46:34.915Z,97052.41
2018-05-31T12:49:01.913Z,97044.57
2018-05-31T12:51:29.015Z,97041.86
2018-05-31T12:53:56.091Z,97042.91
2018-05-31T12:56:23.222Z,97045.00
2018-05-31T12:58:51.366Z,97057.64
2018-05-31T13:01:19.000Z,97051.20
2018-05-31T13:03:46.454Z,97048.97
2018-05-31T13:06:13.932Z,97040.79
2018-05-31T13:08:41.440Z,97033.77
2018-05-31T13:11:08.929Z,97032.31
2018-05-31T13:13:36.566Z,97031.75
2018-05-31T13:16:04.068Z,97023.80
2018-05-31T13:18:31.051Z,97018.55
2018-05-31T13:20:58.142Z,97019.69
2018-05-31T13:23:25.160Z,97026.61
2018-05-31T13:25:52.118Z,97029.05
2018-05-31T13:28:19.410Z,97034.66
2018-05-31T13:30:46.395Z,97034.55
2018-05-31T13:33:13.528Z,97040.94
2018-05-31T13:35:40.543Z,97049.75
2018-05-31T13:38:08.090Z,97041.77
2018-05-31T13:40:35.677Z,97042.38
2018-05-31T13:43:03.236Z,97042.32
2018-05-31T13:45:30.708Z,97042.59
2018-05-31T13:47:58.256Z,97043.97
2018-05-31T13:50:25.705Z,97055.80
2018-05-31T13:52:53.290Z,97057.80
2018-05-31T13:55:21.977Z,97063.27
2018-05-31T13:57:50.199Z,97054.21
2018-05-31T14:00:17.659Z,97057.30
2018-05-31T14:02:45.203Z,97065.63
2018-05-31T14:05:12.694Z,97082.91
2018-05-31T14:07:40.216Z,97087.13
2018-05-31T14:10:07.215Z,97091.39
2018-05-31T14:12:35.501Z,97098.74
2018-05-31T14:15:02.500Z,97108.08
2018-05-31T14:17:29.959Z,97122.27
2018-05-31T14:19:57.416Z,97133.55
2018-05-31T14:22:24.854Z,97132.79
2018-05-31T14:24:52.395Z,97133.34
2018-05-31T14:27:19.843Z,97121.48
2018-05-31T14:29:48.613Z,97110.92
2018-05-31T14:32:16.084Z,97106.07
2018-05-31T14:34:43.651Z,97124.56
2018-05-31T14:37:11.832Z,97135.79
2018-05-31T14:39:39.017Z,97126.86
2018-05-31T14:42:06.472Z,97119.55
2018-05-31T14:44:33.541Z,97109.97
2018-05-31T14:47:00.564Z,97109.39
2018-05-31T14:49:27.512Z,97104.66
2018-05-31T14:51:55.083Z,97106.70
2018-05-31T14:54:22.106Z,97106.38
2018-05-31T14:56:50.094Z,97099.98
2018-05-31T14:59:17.660Z,97104.22
2018-05-31T15:01:46.093Z,97093.98
2018-05-31T15:04:13.809Z,97087.61
2018-05-31T15:06:41.259Z,97071.48
2018-05-31T15:09:08.801Z,97070.02
2018-05-31T15:11:36.920Z,97077.22
2018-05-31T15:14:04.924Z,97083.16
2018-05-31T15:16:32.379Z,97084.41
2018-05-31T15:18:59.885Z,97083.43
2018-05-31T15:21:27.295Z,97084.45
2018-05-31T15:23:55.294Z,97082.52
2018-05-31T15:26:22.907Z,97083.77
2018-05-31T15:28:50.483Z,97082.60
2018-05-31T15:31:18.187Z,97079.09
2018-05-31T15:33:45.701Z,97073.00
2018-05-31T15:36:13.166Z,97074.87
2018-05-31T15:38:41.549Z,97063.30
2018-05-31T15:41:09.091Z,97069.27
2018-05-31T15:43:37.251Z,97088.77
2018-05-31T15:46:04.703Z,97107.91
2018-05-31T15:48:32.156Z,97126.77
2018-05-31T15:50:59.676Z,97127.47
2018-05-31T15:53:27.239Z,97130.36
2018-05-31T15:55:54.691Z,97133.80
2018-05-31T15:58:22.190Z,97142.05
2018-05-31T16:00:49.719Z,97154.97
2018-05-31T16:03:18.976Z,97159.14
2018-05-31T16:05:46.700Z,97162.40
2018-05-31T16:08:17.067Z,97179.73
2018-05-31T16:10:44.581Z,97195.28
2018-05-31T16:13:12.972Z,97224.28
2018-05-31T16:15:40.399Z,97237.36
2018-05-31T16:18:07.989Z,97232.48
2018-05-31T16:20:35.444Z,97250.52
2018-05-31T16:23:03.429Z,97271.44
2018-05-31T16:25:30.943Z,97283.54
2018-05-31T16:27:58.396Z,97309.33
2018-05-31T16:30:25.878Z,97308.00
2018-05-31T16:32:53.360Z,97288.87
2018-05-31T16:35:22.619Z,97307.20
2018-05-31T16:37:50.135Z,97301.63
2018-05-31T16:40:17.598Z,97307.16
2018-05-31T16:42:45.806Z,97314.28
2018-05-31T16:45:13.211Z,97310.37
2018-05-31T16:47:40.631Z,97309.59
2018-05-31T16:50:08.339Z,97307.62
2018-05-31T16:52:35.825Z,97301.88
2018-05-31T16:55:03.232Z,97300.43
2018-05-31T16:57:30.699Z,97297.61
2018-05-31T16:59:58.301Z,97301.52
2018-05-31T17:02:25.796Z,97307.92
2018-05-31T17:04:53.216Z,97294.61
2018-05-31T17:07:20.716Z,97292.48
2018-05-31T17:09:48.171Z,97303.49
2018-05-31T17:12:15.811Z,97294.50
2018-05-31T17:14:43.301Z,97305.41
2018-05-31T17:17:10.815Z,97316.40
2018-05-31T17:19:39.279Z,97321.12
2018-05-31T17:22:06.734Z,97327.55
2018-05-31T17:24:34.178Z,97332.42
2018-05-31T17:27:01.722Z,97334.52
2018-05-31T17:29:29.133Z,97334.50
2018-05-31T17:31:59.232Z,97341.29
2018-05-31T17:34:26.971Z,97339.05
2018-05-31T17:36:54.653Z,97333.19
2018-05-31T17:39:22.251Z,97334.44
2018-05-31T17:41:49.715Z,97330.14
2018-05-31T17:44:17.187Z,97325.16
2018-05-31T17:46:45.774Z,97321.38
2018-05-31T17:49:13.258Z,97315.02
2018-05-31T17:51:41.028Z,97316.63
2018-05-31T17:54:08.495Z,97312.45
2018-05-31T17:56:35.935Z,97313.23
2018-05-31T17:59:06.141Z,97320.69
2018-05-31T18:01:33.566Z,97330.67
2018-05-31T18:04:01.311Z,97334.80
2018-05-31T18:06:29.382Z,97329.09
2018-05-31T18:08:56.846Z,97335.95
2018-05-31T18:11:25.834Z,97338.34
2018-05-31T18:13:53.647Z,97340.30
2018-05-31T18:16:21.109Z,97346.37
2018-05-31T18:18:48.691Z,97338.38
2018-05-31T18:21:16.331Z,97330.42
2018-05-31T18:23:44.584Z,97325.54
2018-05-31T18:26:12.036Z,97322.11
2018-05-31T18:28:39.501Z,97329.33
2018-05-31T18:31:06.923Z,97324.38
2018-05-31T18:33:34.368Z,97327.30
2018-05-31T18:36:02.001Z,97322.48
2018-05-31T18:38:29.555Z,97318.59
2018-05-31T18:40:57.052Z,97318.87
2018-05-31T18:45:58.215Z,97325.30
2018-05-31T18:48:25.685Z,97327.25
2018-05-31T18:50:53.087Z,97329.77
2018-05-31T18:53:20.529Z,97322.33
2018-05-31T18:55:48.008Z,97323.67
2018-05-31T18:58:16.609Z,97314.48
2018-05-31T19:00:44.138Z,97324.64
2018-05-31T19:03:12.848Z,97322.91
2018-05-31T19:05:42.339Z,97322.58
2018-05-31T19:08:09.811Z,97328.77
2018-05-31T19:10:37.281Z,97328.54
2018-05-31T19:13:10.211Z,97325.44
2018-05-31T19:15:37.804Z,97328.48
2018-05-31T19:18:05.208Z,97330.08
2018-05-31T19:20:32.655Z,97333.75
2018-05-31T19:23:00.131Z,97338.20
2018-05-31T19:25:27.558Z,97354.78
2018-05-31T19:27:55.111Z,97366.06
2018-05-31T19:30:28.133Z,97377.27
2018-05-31T19:32:55.562Z,97387.98
2018-05-31T19:35:28.483Z,97392.31
2018-05-31T19:37:55.937Z,97403.13
2018-05-31T19:40:25.278Z,97402.95
2018-05-31T19:42:58.375Z,97405.14
2018-05-31T19:45:25.844Z,97409.64
2018-05-31T19:47:53.341Z,97414.67
2018-05-31T19:50:20.828Z,97415.47
2018-05-31T19:52:57.767Z,97415.16
2018-05-31T19:55:25.241Z,97411.09
2018-05-31T19:57:58.288Z,97416.68
2018-05-31T20:00:31.860Z,97427.08
2018-05-31T20:03:06.022Z,97425.41
2018-05-31T20:05:33.536Z,97430.02
2018-05-31T20:08:02.453Z,97429.03
2018-05-31T20:10:29.956Z,97431.94
2018-05-31T20:12:57.451Z,97439.66
2018-05-31T20:15:24.894Z,97440.58
2018-05-31T20:17:52.359Z,97443.30
2018-05-31T20:20:19.879Z,97444.20
2018-05-31T20:22:47.306Z,97450.34
2018-05-31T20:25:14.754Z,97449.02
2018-05-31T20:27:42.221Z,97446.52
2018-05-31T20:30:09.660Z,97451.78
2018-05-31T20:32:38.261Z,97447.48
2018-05-31T20:35:05.772Z,97450.74
2018-05-31T20:37:33.273Z,97457.63
2018-05-31T20:40:00.756Z,97459.03
2018-05-31T20:42:28.285Z,97452.98
2018-05-31T20:44:55.720Z,97448.45
2018-05-31T20:47:23.143Z,97456.61
2018-05-31T20:49:51.768Z,97456.20
2018-05-31T20:52:19.224Z,97457.33
2018-05-31T20:54:46.778Z,97455.67
2018-05-31T20:57:14.244Z,97457.22
2018-05-31T20:59:41.691Z,97454.45
2018-05-31T21:02:09.984Z,97453.62
2018-05-31T21:04:37.397Z,97453.35
2018-05-31T21:07:04.942Z,97457.89
2018-05-31T21:09:32.478Z,97451.38
2018-05-31T21:12:00.006Z,97459.22
2018-05-31T21:14:27.410Z,97455.28
2018-05-31T21:16:54.863Z,97453.02
2018-05-31T21:19:22.336Z,97448.97
2018-05-31T21:21:50.715Z,97456.84
2018-05-31T21:24:18.154Z,97457.82
2018-05-31T21:26:45.619Z,97457.30
2018-05-31T21:29:13.273Z,97457.90
2018-05-31T21:31:40.696Z,97451.36
2018-05-31T21:34:11.332Z,97454.64
2018-05-31T21:36:38.756Z,97455.55
2018-05-31T21:39:06.184Z,97457.21
2018-05-31T21:41:34.333Z,97457.70
2018-05-31T21:44:01.813Z,97462.17
2018-05-31T21:46:29.261Z,97467.23
2018-05-31T21:48:58.099Z,97465.20
2018-05-31T21:51:26.335Z,97466.03
2018-05-31T21:53:53.747Z,97461.45
2018-05-31T21:56:21.139Z,97460.84
2018-05-31T21:58:48.585Z,97463.98
2018-05-31T22:03:54.347Z,97469.70
2018-05-31T22:06:21.792Z,97471.28
2018-05-31T22:08:49.292Z,97475.63
2018-05-31T22:11:16.996Z,97471.89
2018-05-31T22:13:45.370Z,97484.63
2018-05-31T22:16:12.890Z,97474.64
2018-05-31T22:18:40.343Z,97469.89
2018-05-31T22:21:07.798Z,97472.95
2018-05-31T22:23:35.804Z,97470.06
2018-05-31T22:26:05.348Z,97473.45
2018-05-31T22:28:32.994Z,97480.26
2018-05-31T22:31:00.436Z,97483.70
2018-05-31T22:33:27.967Z,97474.13
2018-05-31T22:35:55.410Z,97481.67
2018-05-31T22:38:22.904Z,97480.06
2018-05-31T22:40:51.329Z,97476.93
2018-05-31T22:43:18.889Z,97469.07
2018-05-31T22:45:48.331Z,97467.14
2018-05-31T22:48:15.824Z,97464.43
2018-05-31T22:50:43.624Z,97465.64
2018-05-31T22:53:11.136Z,97467.88
2018-05-31T22:55:38.620Z,97473.97
2018-05-31T22:58:06.107Z,97468.61
2018-05-31T23:00:33.551Z,97468.35
2018-05-31T23:03:01.131Z,97465.94
2018-05-31T23:05:28.920Z,97457.05
2018-05-31T23:07:56.938Z,97460.53
2018-05-31T23:10:24.407Z,97453.69
2018-05-31T23:12:53.885Z,97449.91
2018-05-31T23:15:21.497Z,97452.02
2018-05-31T23:17:51.557Z,97460.97
2018-05-31T23:20:19.032Z,97467.19
2018-05-31T23:22:46.495Z,97460.15
2018-05-31T23:25:14.009Z,97464.52
2018-05-31T23:27:41.443Z,97463.01
2018-05-31T23:30:08.859Z,97468.34
2018-05-31T23:32:36.331Z,97462.87
2018-05-31T23:35:03.790Z,97475.73
2018-05-31T23:37:31.269Z,97471.25
2018-05-31T23:39:58.681Z,97472.80
2018-05-31T23:42:26.145Z,97474.91
2018-05-31T23:44:53.579Z,97478.03
2018-05-31T23:47:21.033Z,97474.11
2018-05-31T23:49:49.069Z,97475.25
2018-05-31T23:52:16.609Z,97467.34
2018-05-31T23:54:44.151Z,97470.39
2018-05-31T23:57:11.598Z,97479.23
2018-05-31T23:59:39.616Z,97477.47
